.
WxDataArchive / Data Records for 2015-04-10
2015-04-09 April 2015 2015-04-11

Data Records for Friday, 10 April 2015

Time	Temp	Chill	HIndex	Humid	Dewpt	 Wind 	HiWind	WindDir	Rain 	Barom
-----	----	-----	------	-----	-----	------	------	-------	-----	-----
00:00	68.6	68.6	68.6	69	58.0	1	5	90	0.00	29.562 
00:05	68.6	68.6	68.6	69	58.0	1	6	90	0.00	29.562 
00:10	68.6	68.6	68.6	69	58.0	1	6	90	0.00	29.562 
00:15	68.8	68.8	68.8	69	58.2	1	3	338	0.00	29.541 
00:20	68.6	68.6	68.6	70	58.4	1	4	112	0.00	29.541 
00:25	68.8	68.8	68.8	70	58.6	2	5	112	0.00	29.541 
00:30	68.8	68.8	68.8	70	58.6	2	5	90	0.00	29.526 
00:35	68.9	68.9	68.9	70	58.7	2	7	90	0.00	29.526 
00:40	68.9	68.9	68.9	71	59.1	3	10	90	0.00	29.526 
00:45	68.8	68.8	68.8	71	59.0	2	11	112	0.00	29.513 
00:50	68.8	68.8	68.8	72	59.4	2	5	112	0.00	29.513 
00:55	68.6	68.6	68.6	72	59.2	3	6	90	0.00	29.513 
01:00	68.6	68.6	68.6	72	59.2	2	9	112	0.00	29.495 
01:05	68.4	68.4	68.4	73	59.4	1	4	292	0.00	29.495 
01:10	68.4	68.4	68.4	73	59.4	1	5	90	0.00	29.495 
01:15	68.4	68.4	68.4	73	59.4	1	5	112	0.00	29.495 
01:20	68.4	68.4	68.4	74	59.8	1	5	248	0.00	29.495 
01:25	68.4	68.4	68.4	73	59.4	3	12	248	0.00	29.495 
01:30	68.6	68.6	68.6	73	59.6	2	7	292	0.00	29.487 
01:35	68.8	68.8	68.8	73	59.8	2	7	248	0.00	29.487 
01:40	68.8	68.8	68.8	73	59.8	2	9	270	0.00	29.487 
01:45	68.8	68.8	68.8	73	59.8	2	4	248	0.00	29.499 
01:50	68.9	68.9	68.9	72	59.5	2	10	270	0.00	29.499 
01:55	69.1	69.1	69.1	72	59.7	2	7	248	0.00	29.499 
02:00	69.1	69.1	69.1	72	59.7	2	5	248	0.00	29.505 
02:05	68.9	68.9	68.9	71	59.1	2	4	248	0.00	29.505 
02:10	68.9	68.9	68.9	70	58.7	2	5	248	0.00	29.505 
02:15	69.1	69.1	69.1	70	58.9	2	6	248	0.00	29.485 
02:20	69.1	69.1	69.1	68	58.1	2	7	248	0.00	29.485 
02:25	69.4	69.4	69.4	65	57.1	3	9	248	0.00	29.485 
02:30	69.8	69.8	69.8	64	57.1	3	11	248	0.00	29.492 
02:35	70.1	70.1	70.1	64	57.3	2	11	248	0.00	29.492 
02:40	70.1	70.1	70.1	63	56.9	4	13	248	0.00	29.492 
02:45	70.1	70.1	70.1	62	56.5	3	10	248	0.00	29.511 
02:50	70.1	70.1	70.1	62	56.5	3	15	248	0.00	29.511 
02:55	69.9	69.9	69.9	62	56.3	2	9	248	0.00	29.511 
03:00	69.8	69.8	69.8	62	56.2	3	9	248	0.00	29.520 
03:05	69.6	69.6	69.6	63	56.4	2	12	248	0.00	29.520 
03:10	69.4	69.4	69.4	65	57.1	4	12	248	0.00	29.520 
03:15	69.3	69.3	69.3	67	57.9	3	12	270	0.00	29.499 
03:20	69.1	69.1	69.1	69	58.5	4	10	248	0.00	29.499 
03:25	68.3	68.3	68.3	69	57.7	5	13	248	0.00	29.499 
03:30	64.3	64.3	64.3	67	53.1	6	13	270	0.00	29.533 
03:35	62.0	62.0	62.0	70	52.1	5	10	270	0.00	29.533 
03:40	60.7	60.7	60.7	72	51.6	4	11	248	0.00	29.533 
03:45	59.8	59.8	59.8	73	51.1	5	10	270	0.00	29.538 
03:50	59.2	59.2	59.2	73	50.5	4	10	270	0.00	29.538 
03:55	58.7	58.7	58.7	72	49.7	4	9	270	0.00	29.538 
04:00	58.3	58.3	58.3	73	49.7	5	12	248	0.00	29.554 
04:05	57.8	57.8	57.8	72	48.8	6	12	270	0.00	29.554 
04:10	56.9	56.9	56.9	67	46.1	5	13	270	0.00	29.554 
04:15	56.2	56.2	56.2	63	43.8	8	16	248	0.00	29.572 
04:20	55.6	55.6	55.6	63	43.2	7	16	270	0.00	29.572 
04:25	55.0	55.0	55.0	64	43.0	6	12	270	0.00	29.572 
04:30	54.5	54.5	54.5	66	43.4	4	10	270	0.00	29.582 
04:35	54.1	54.1	54.1	67	43.4	4	7	248	0.00	29.582 
04:40	53.8	53.8	53.8	68	43.5	4	7	270	0.00	29.582 
04:45	53.5	53.5	53.5	68	43.2	4	8	248	0.00	29.578 
04:50	53.3	53.3	53.3	68	43.0	5	9	248	0.00	29.578 
04:55	53.2	53.2	53.2	69	43.3	4	10	270	0.00	29.578 
05:00	53.1	53.1	53.1	69	43.2	4	8	248	0.00	29.585 
05:05	52.9	52.9	52.9	70	43.4	3	11	248	0.00	29.585 
05:10	52.9	52.9	52.9	69	43.0	4	10	248	0.00	29.585 
05:15	52.9	52.9	52.9	69	43.0	3	11	248	0.00	29.589 
05:20	53.1	53.1	53.1	69	43.2	4	9	248	0.00	29.589 
05:25	53.1	53.1	53.1	69	43.2	3	7	270	0.00	29.589 
05:30	52.9	52.9	52.9	68	42.6	6	11	270	0.00	29.591 
05:35	52.6	52.6	52.6	67	42.0	5	11	270	0.00	29.591 
05:40	52.5	52.5	52.5	66	41.5	6	17	270	0.00	29.591 
05:45	52.3	52.3	52.3	66	41.3	4	9	270	0.00	29.593 
05:50	52.0	52.0	52.0	67	41.4	5	11	270	0.00	29.593 
05:55	51.7	51.7	51.7	69	41.9	6	15	270	0.00	29.593 
06:00	51.1	51.1	51.1	69	41.3	5	12	270	0.00	29.602 
06:05	50.5	50.5	50.5	69	40.7	4	10	270	0.00	29.602 
06:10	50.1	50.1	50.1	68	40.0	6	14	270	0.00	29.602 
06:15	49.8	48.0	49.8	69	40.0	5	10	270	0.00	29.616 
06:20	49.4	47.5	49.4	67	38.9	5	11	270	0.00	29.616 
06:25	49.1	47.2	49.1	67	38.6	5	14	270	0.00	29.616 
06:30	48.8	47.5	48.8	66	38.0	4	9	248	0.00	29.625 
06:35	48.6	46.0	48.6	66	37.8	6	14	270	0.00	29.625 
06:40	48.6	46.6	48.6	67	38.1	5	10	248	0.00	29.625 
06:45	48.3	46.9	48.3	67	37.9	4	8	270	0.00	29.641 
06:50	48.2	46.8	48.2	67	37.8	4	10	248	0.00	29.641 
06:55	47.6	44.3	47.6	64	36.0	7	12	270	0.00	29.641 
07:00	47.3	45.0	47.3	64	35.7	5	11	270	0.00	29.650 
07:05	47.0	44.7	47.0	65	35.9	5	11	270	0.00	29.650 
07:10	46.5	43.5	46.5	62	34.2	6	10	270	0.00	29.650 
07:15	46.1	44.4	46.1	62	33.8	4	15	248	0.00	29.662 
07:20	45.8	44.0	45.8	63	33.9	4	13	248	0.00	29.662 
07:25	45.7	43.9	45.7	65	34.6	4	9	248	0.00	29.662 
07:30	45.4	43.6	45.4	67	35.1	4	10	270	0.00	29.676 
07:35	45.2	43.3	45.2	67	34.9	4	9	248	0.00	29.676 
07:40	45.1	43.2	45.1	68	35.2	4	11	270	0.00	29.676 
07:45	44.9	43.0	44.9	68	35.0	4	10	270	0.00	29.682 
07:50	44.8	44.8	44.8	68	34.9	3	7	248	0.00	29.682 
07:55	44.6	42.6	44.6	68	34.7	4	10	270	0.00	29.682 
08:00	44.6	44.6	44.6	69	35.1	3	11	270	0.00	29.695 
08:05	44.5	44.5	44.5	69	35.0	3	9	248	0.00	29.695 
08:10	44.3	42.3	44.3	69	34.8	4	9	270	0.00	29.695 
08:15	44.3	44.3	44.3	69	34.8	2	5	270	0.00	29.706 
08:20	44.3	44.3	44.3	69	34.8	3	6	270	0.00	29.706 
08:25	44.2	42.2	44.2	70	35.0	4	11	270	0.00	29.706 
08:30	44.2	44.2	44.2	70	35.0	3	11	270	0.00	29.708 
08:35	44.2	42.2	44.2	70	35.0	4	7	248	0.00	29.708 
08:40	44.2	44.2	44.2	70	35.0	3	7	248	0.00	29.708 
08:45	44.2	42.2	44.2	70	35.0	4	10	270	0.00	29.717 
08:50	44.2	42.2	44.2	70	35.0	4	10	270	0.00	29.717 
08:55	44.2	42.2	44.2	71	35.4	4	9	270	0.00	29.717 
09:00	44.2	41.4	44.2	71	35.4	5	10	270	0.00	29.727 
09:05	44.2	42.2	44.2	72	35.8	4	10	270	0.00	29.727 
09:10	44.2	42.2	44.2	72	35.8	4	9	248	0.00	29.727 
09:15	44.2	44.2	44.2	72	35.8	3	10	248	0.00	29.742 
09:20	44.2	44.2	44.2	72	35.8	3	6	248	0.00	29.742 
09:25	44.3	44.3	44.3	73	36.2	3	5	248	0.00	29.742 
09:30	44.3	44.3	44.3	73	36.2	2	5	270	0.00	29.756 
09:35	44.3	44.3	44.3	73	36.2	3	6	270	0.00	29.756 
09:40	44.5	44.5	44.5	72	36.0	3	6	248	0.00	29.756 
09:45	44.5	44.5	44.5	73	36.4	3	5	248	0.00	29.768 
09:50	44.6	44.6	44.6	73	36.5	2	7	270	0.00	29.768 
09:55	44.8	44.8	44.8	73	36.7	3	7	270	0.00	29.768 
10:00	44.8	44.8	44.8	73	36.7	3	7	248	0.00	29.780 
10:05	44.9	43.0	44.9	71	36.1	4	7	248	0.00	29.780 
10:10	45.1	43.2	45.1	71	36.3	4	10	270	0.00	29.780 
10:15	44.9	42.2	44.9	71	36.1	5	11	270	0.00	29.792 
10:20	45.1	43.2	45.1	71	36.3	4	11	270	0.00	29.792 
10:25	45.1	45.1	45.1	71	36.3	3	5	270	0.00	29.792 
10:30	45.2	45.2	45.2	71	36.4	3	6	270	0.00	29.805 
10:35	45.4	43.6	45.4	70	36.2	4	9	270	0.00	29.805 
10:40	45.4	43.6	45.4	70	36.2	4	9	270	0.00	29.805 
10:45	45.4	42.8	45.4	69	35.8	5	9	270	0.00	29.807 
10:50	45.5	43.7	45.5	70	36.3	4	9	270	0.00	29.807 
10:55	45.5	42.9	45.5	70	36.3	5	9	270	0.00	29.807 
11:00	45.5	43.7	45.5	70	36.3	4	6	270	0.00	29.822 
11:05	45.7	43.2	45.7	70	36.5	5	10	270	0.00	29.822 
11:10	46.0	43.5	46.0	71	37.1	5	11	270	0.00	29.822 
11:15	46.2	44.5	46.2	69	36.6	4	8	270	0.00	29.828 
11:20	46.7	45.1	46.7	69	37.1	4	9	270	0.00	29.828 
11:25	47.1	45.5	47.1	68	37.1	4	9	270	0.00	29.828 
11:30	47.6	46.1	47.6	67	37.2	4	9	270	0.00	29.835 
11:35	47.6	45.4	47.6	66	36.8	5	10	270	0.00	29.835 
11:40	47.6	44.8	47.6	66	36.8	6	10	270	0.00	29.835 
11:45	48.0	46.6	48.0	67	37.6	4	9	270	0.00	29.837 
11:50	48.6	47.3	48.6	67	38.1	4	6	248	0.00	29.837 
11:55	49.1	47.8	49.1	65	37.8	4	11	270	0.00	29.837 
12:00	49.5	48.3	49.5	63	37.4	4	9	270	0.00	29.844 
12:05	49.9	48.8	49.9	63	37.8	4	10	270	0.00	29.844 
12:10	50.2	50.2	50.2	63	38.1	4	7	270	0.00	29.844 
12:15	50.4	50.4	50.4	62	37.9	5	9	270	0.00	29.848 
12:20	50.4	50.4	50.4	63	38.3	4	9	270	0.00	29.848 
12:25	51.0	51.0	51.0	63	38.9	3	6	270	0.00	29.848 
12:30	51.3	51.3	51.3	60	37.9	4	7	270	0.00	29.846 
12:35	51.6	51.6	51.6	60	38.2	4	11	270	0.00	29.846 
12:40	51.7	51.7	51.7	60	38.3	4	7	270	0.00	29.846 
12:45	52.0	52.0	52.0	59	38.1	4	10	270	0.00	29.850 
12:50	52.2	52.2	52.2	58	37.9	4	10	270	0.00	29.850 
12:55	52.5	52.5	52.5	57	37.7	4	9	270	0.00	29.850 
13:00	52.9	52.9	52.9	58	38.5	3	7	270	0.00	29.851 
13:05	53.2	53.2	53.2	55	37.5	4	9	270	0.00	29.851 
13:10	53.2	53.2	53.2	56	37.9	5	11	270	0.00	29.851 
13:15	53.5	53.5	53.5	56	38.2	4	7	270	0.00	29.850 
13:20	53.6	53.6	53.6	56	38.3	5	9	270	0.00	29.850 
13:25	53.9	53.9	53.9	55	38.1	3	7	292	0.00	29.850 
13:30	54.4	54.4	54.4	57	39.5	3	5	270	0.00	29.851 
13:35	54.5	54.5	54.5	54	38.2	4	7	270	0.00	29.851 
13:40	55.0	55.0	55.0	54	38.7	3	6	270	0.00	29.851 
13:45	55.3	55.3	55.3	54	38.9	3	9	248	0.00	29.848 
13:50	55.4	55.4	55.4	51	37.6	3	7	248	0.00	29.848 
13:55	55.7	55.7	55.7	52	38.3	3	7	248	0.00	29.848 
14:00	55.9	55.9	55.9	49	37.0	3	6	292	0.00	29.847 
14:05	56.3	56.3	56.3	50	37.9	3	9	248	0.00	29.847 
14:10	56.6	56.6	56.6	47	36.6	4	9	270	0.00	29.847 
14:15	56.9	56.9	56.9	50	38.5	3	7	270	0.00	29.844 
14:20	57.2	57.2	57.2	48	37.7	2	7	248	0.00	29.844 
14:25	57.2	57.2	57.2	47	37.2	3	10	248	0.00	29.844 
14:30	57.6	57.6	57.6	48	38.1	3	9	248	0.00	29.851 
14:35	58.1	58.1	58.1	46	37.4	4	8	248	0.00	29.851 
14:40	58.4	58.4	58.4	46	37.7	3	5	270	0.00	29.851 
14:45	58.7	58.7	58.7	46	38.0	3	7	248	0.00	29.855 
14:50	59.0	59.0	59.0	42	35.9	3	6	248	0.00	29.855 
14:55	59.2	59.2	59.2	44	37.3	3	7	248	0.00	29.855 
15:00	59.5	59.5	59.5	43	37.0	3	8	248	0.00	29.855 
15:05	59.3	59.3	59.3	42	36.2	4	9	248	0.00	29.855 
15:10	59.2	59.2	59.2	43	36.7	4	8	270	0.00	29.855 
15:15	59.2	59.2	59.2	41	35.5	5	15	270	0.00	29.868 
15:20	59.5	59.5	59.5	43	37.0	3	9	248	0.00	29.868 
15:25	59.9	59.9	59.9	42	36.8	3	7	248	0.00	29.868 
15:30	60.2	60.2	60.2	41	36.4	3	7	270	0.00	29.865 
15:35	60.5	60.5	60.5	41	36.7	3	11	270	0.00	29.865 
15:40	60.5	60.5	60.5	39	35.4	4	11	248	0.00	29.865 
15:45	60.5	60.5	60.5	39	35.4	3	6	248	0.00	29.864 
15:50	60.9	60.9	60.9	40	36.4	3	7	248	0.00	29.864 
15:55	60.9	60.9	60.9	41	37.0	3	11	248	0.00	29.864 
16:00	61.0	61.0	61.0	40	36.5	3	9	248	0.00	29.858 
16:05	60.9	60.9	60.9	39	35.8	4	11	248	0.00	29.858 
16:10	61.0	61.0	61.0	40	36.5	3	7	248	0.00	29.858 
16:15	61.3	61.3	61.3	37	34.8	4	7	248	0.00	29.853 
16:20	61.3	61.3	61.3	35	33.4	5	10	270	0.00	29.853 
16:25	61.3	61.3	61.3	36	34.1	3	9	270	0.00	29.853 
16:30	61.8	61.8	61.8	39	36.6	2	6	248	0.00	29.849 
16:35	62.4	62.4	62.4	40	37.8	2	4	270	0.00	29.849 
16:40	62.9	62.9	62.9	35	34.8	3	6	248	0.00	29.849 
16:45	62.7	62.7	62.7	33	33.2	5	10	270	0.00	29.848 
16:50	62.6	62.6	62.6	33	33.1	4	11	248	0.00	29.848 
16:55	62.1	62.1	62.1	35	34.1	4	7	270	0.00	29.848 
17:00	62.3	62.3	62.3	35	34.3	2	7	270	0.00	29.838 
17:05	62.6	62.6	62.6	36	35.3	2	6	248	0.00	29.838 
17:10	62.4	62.4	62.4	36	35.1	2	6	248	0.00	29.838 
17:15	62.0	62.0	62.0	37	35.4	3	9	248	0.00	29.843 
17:20	61.8	61.8	61.8	39	36.6	3	10	248	0.00	29.843 
17:25	62.1	62.1	62.1	37	35.5	4	9	248	0.00	29.843 
17:30	62.0	62.0	62.0	38	36.1	3	10	248	0.00	29.839 
17:35	62.4	62.4	62.4	37	35.8	3	6	270	0.00	29.839 
17:40	62.6	62.6	62.6	37	36.0	4	16	248	0.00	29.839 
17:45	62.4	62.4	62.4	36	35.1	4	10	248	0.00	29.830 
17:50	62.6	62.6	62.6	35	34.6	5	12	270	0.00	29.830 
17:55	62.9	62.9	62.9	36	35.5	3	7	248	0.00	29.830 
18:00	62.9	62.9	62.9	35	34.8	5	10	270	0.00	29.824 
18:05	62.4	62.4	62.4	36	35.1	4	9	248	0.00	29.824 
18:10	62.6	62.6	62.6	36	35.3	3	9	248	0.00	29.824 
18:15	62.7	62.7	62.7	35	34.7	4	12	248	0.00	29.824 
18:20	62.6	62.6	62.6	35	34.6	4	11	248	0.00	29.824 
18:25	62.6	62.6	62.6	35	34.6	4	9	248	0.00	29.824 
18:30	62.4	62.4	62.4	35	34.4	4	11	270	0.00	29.828 
18:35	62.3	62.3	62.3	36	35.0	3	7	248	0.00	29.828 
18:40	62.1	62.1	62.1	36	34.8	3	8	248	0.00	29.828 
18:45	62.0	62.0	62.0	36	34.7	3	7	248	0.00	29.828 
18:50	62.1	62.1	62.1	36	34.8	3	5	248	0.00	29.828 
18:55	62.4	62.4	62.4	36	35.1	4	16	248	0.00	29.828 
19:00	62.1	62.1	62.1	35	34.1	4	7	248	0.00	29.827 
19:05	61.8	61.8	61.8	37	35.3	2	5	248	0.00	29.827 
19:10	61.6	61.6	61.6	37	35.1	4	7	248	0.00	29.827 
19:15	61.5	61.5	61.5	37	35.0	2	6	248	0.00	29.828 
19:20	61.5	61.5	61.5	36	34.3	3	8	248	0.00	29.828 
19:25	61.5	61.5	61.5	38	35.7	3	13	248	0.00	29.828 
19:30	61.3	61.3	61.3	37	34.8	3	6	248	0.00	29.828 
19:35	61.2	61.2	61.2	36	34.0	5	13	248	0.00	29.828 
19:40	61.2	61.2	61.2	37	34.7	4	10	248	0.00	29.828 
19:45	61.2	61.2	61.2	37	34.7	5	11	248	0.00	29.828 
19:50	61.0	61.0	61.0	37	34.5	4	13	248	0.00	29.828 
19:55	60.2	60.2	60.2	47	39.9	5	10	270	0.00	29.828 
20:00	58.6	58.6	58.6	50	40.0	5	9	270	0.00	29.838 
20:05	58.0	58.0	58.0	52	40.5	5	14	248	0.00	29.838 
20:10	58.0	58.0	58.0	50	39.5	4	12	248	0.00	29.838 
20:15	58.3	58.3	58.3	49	39.2	4	10	248	0.00	29.839 
20:20	58.6	58.6	58.6	48	39.0	3	9	248	0.00	29.839 
20:25	58.7	58.7	58.7	48	39.1	4	9	248	0.00	29.839 
20:30	58.0	58.0	58.0	43	35.6	5	10	292	0.00	29.878 
20:35	56.6	56.6	56.6	44	34.9	5	14	270	0.00	29.878 
20:40	55.7	55.7	55.7	46	35.2	4	9	292	0.00	29.878 
20:45	54.5	54.5	54.5	46	34.1	6	15	292	0.00	29.900 
20:50	53.8	53.8	53.8	48	34.6	5	15	338	0.00	29.900 
20:55	53.2	53.2	53.2	48	34.0	5	9	292	0.00	29.900 
21:00	52.9	52.9	52.9	49	34.3	3	7	292	0.00	29.921 
21:05	52.6	52.6	52.6	48	33.5	5	12	315	0.00	29.921 
21:10	52.3	52.3	52.3	47	32.7	5	11	315	0.00	29.921 
21:15	52.0	52.0	52.0	47	32.4	4	7	270	0.00	29.939 
21:20	51.7	51.7	51.7	46	31.6	5	14	292	0.00	29.939 
21:25	51.6	51.6	51.6	47	32.0	5	12	270	0.00	29.939 
21:30	51.1	51.1	51.1	48	32.1	5	11	270	0.00	29.957 
21:35	50.8	50.8	50.8	50	32.8	5	10	270	0.00	29.957 
21:40	50.4	50.4	50.4	52	33.4	5	11	292	0.00	29.957 
21:45	50.1	50.1	50.1	53	33.6	2	5	292	0.00	29.973 
21:50	49.8	49.8	49.8	54	33.8	3	11	315	0.00	29.973 
21:55	49.5	49.5	49.5	55	34.0	3	11	292	0.00	29.973 
22:00	49.2	49.2	49.2	56	34.2	2	4	270	0.00	29.984 
22:05	48.9	48.9	48.9	58	34.8	2	5	270	0.00	29.984 
22:10	48.6	48.6	48.6	59	34.9	2	7	270	0.00	29.984 
22:15	48.3	48.3	48.3	60	35.1	3	5	270	0.00	29.996 
22:20	48.2	48.2	48.2	61	35.4	2	5	248	0.00	29.996 
22:25	47.9	47.9	47.9	62	35.5	2	6	292	0.00	29.996 
22:30	47.7	47.7	47.7	63	35.7	2	5	270	0.00	30.011 
22:35	47.6	47.6	47.6	64	36.0	2	6	292	0.00	30.011 
22:40	47.4	47.4	47.4	65	36.2	3	8	292	0.00	30.011 
22:45	47.3	47.3	47.3	67	36.9	3	5	338	0.00	30.027 
22:50	47.0	47.0	47.0	70	37.7	3	8	338	0.00	30.027 
22:55	46.5	44.8	46.5	70	37.3	4	9	315	0.00	30.027 
23:00	46.2	46.2	46.2	71	37.3	2	10	338	0.00	30.042 
23:05	46.0	46.0	46.0	72	37.5	3	10	292	0.00	30.042 
23:10	45.8	45.8	45.8	73	37.6	2	6	292	0.00	30.042 
23:15	45.7	45.7	45.7	72	37.2	3	7	315	0.00	30.051 
23:20	45.4	45.4	45.4	71	36.6	3	7	270	0.00	30.051 
23:25	45.1	45.1	45.1	72	36.6	2	6	292	0.00	30.051 
23:30	44.8	44.8	44.8	72	36.3	3	7	315	0.00	30.070 
23:35	44.6	44.6	44.6	73	36.5	3	10	292	0.00	30.070 
23:40	44.5	44.5	44.5	73	36.4	3	10	338	0.00	30.070 
23:45	44.3	44.3	44.3	74	36.5	3	10	338	0.00	30.074 
23:50	44.1	44.1	44.1	74	36.4	1	5	292	0.00	30.074 
23:55	43.9	43.9	43.9	74	36.2	1	4	315	0.00	30.074 

CoCoRaHS
IN-AL-39
A2 Web Hosting
Creative Commons License
GoDaddy
search engine by freefind advanced

loaded 2018-11-18 11:52:57 • last modified 2010-11-18 10:43:29
Privacy PolicyDisclaimer
• wx.awcolley.com is powered by PmWiki v.2002016 •
• all content (unless otherwise noted) © 2018 A W Colley